GXWJN BIKF-EGPH
Flight info
| Callsign | GXWJN |
|---|---|
| Flight time | 2h 0m |
| Altitude | 39000 |
| Route | OSKUM1B OSKUM DCT RATSU/N0461F390 DCT BARKU DCT BRUCE/N0415F250 Q602 CLYDE DCT STIRA |
| Aircraft | B736/M-SDE2E3FGHIRWXY/LB1 |
Departure
| Time | 2026-04-26 20:09 |
|---|---|
| Airport | Keflavik International Airport (BIKF) |
Arrival
| Time | 2026-04-26 22:10 |
|---|---|
| Airport | Edinburgh Airport (EGPH) |
| Time | Latitude | Longitude | Altitude | Speed | Heading |
|---|---|---|---|---|---|
| 2026-04-26 19:47 | 63.97351 | -22.59129 | 158 ft | 0 kts | 118° |
| 2026-04-26 19:54 | 63.97356 | -22.59152 | 158 ft | 2 kts | 119° |
| 2026-04-26 19:55 | 63.97364 | -22.59181 | 159 ft | 2 kts | 119° |
| 2026-04-26 19:55 | 63.97370 | -22.59209 | 160 ft | 2 kts | 121° |
| 2026-04-26 19:55 | 63.97377 | -22.59234 | 160 ft | 2 kts | 128° |
| 2026-04-26 19:55 | 63.97386 | -22.59257 | 160 ft | 2 kts | 153° |
| 2026-04-26 19:56 | 63.97398 | -22.59262 | 160 ft | 1 kts | 196° |
| 2026-04-26 19:56 | 63.97401 | -22.59261 | 161 ft | 0 kts | 199° |
| 2026-04-26 20:00 | 63.97363 | -22.59291 | 160 ft | 11 kts | 199° |
| 2026-04-26 20:00 | 63.97309 | -22.59342 | 156 ft | 9 kts | 205° |
| 2026-04-26 20:00 | 63.97237 | -22.59431 | 155 ft | 13 kts | 229° |
| 2026-04-26 20:01 | 63.97246 | -22.59624 | 154 ft | 13 kts | 293° |
| 2026-04-26 20:01 | 63.97279 | -22.59809 | 153 ft | 12 kts | 293° |
| 2026-04-26 20:01 | 63.97313 | -22.59986 | 153 ft | 12 kts | 292° |
| 2026-04-26 20:01 | 63.97345 | -22.60161 | 153 ft | 12 kts | 294° |
| 2026-04-26 20:02 | 63.97376 | -22.60334 | 153 ft | 12 kts | 291° |
| 2026-04-26 20:02 | 63.97404 | -22.60502 | 155 ft | 11 kts | 291° |
| 2026-04-26 20:02 | 63.97429 | -22.60668 | 154 ft | 11 kts | 287° |
| 2026-04-26 20:02 | 63.97443 | -22.60780 | 153 ft | 11 kts | 283° |
| 2026-04-26 20:03 | 63.97471 | -22.61021 | 154 ft | 14 kts | 284° |
| 2026-04-26 20:03 | 63.97497 | -22.61251 | 154 ft | 16 kts | 285° |
| 2026-04-26 20:03 | 63.97541 | -22.61617 | 154 ft | 29 kts | 285° |
| 2026-04-26 20:03 | 63.97593 | -22.62049 | 153 ft | 27 kts | 285° |
| 2026-04-26 20:04 | 63.97640 | -22.62451 | 151 ft | 25 kts | 285° |
| 2026-04-26 20:04 | 63.97684 | -22.62821 | 148 ft | 24 kts | 285° |
| 2026-04-26 20:04 | 63.97725 | -22.63172 | 145 ft | 23 kts | 285° |
| 2026-04-26 20:04 | 63.97765 | -22.63513 | 141 ft | 22 kts | 284° |
| 2026-04-26 20:05 | 63.97805 | -22.63843 | 138 ft | 21 kts | 285° |
| 2026-04-26 20:05 | 63.97843 | -22.64165 | 134 ft | 21 kts | 285° |
| 2026-04-26 20:05 | 63.97880 | -22.64482 | 128 ft | 21 kts | 284° |
| 2026-04-26 20:05 | 63.97920 | -22.64828 | 124 ft | 24 kts | 285° |
| 2026-04-26 20:06 | 63.97965 | -22.65205 | 121 ft | 25 kts | 285° |
| 2026-04-26 20:06 | 63.98016 | -22.65462 | 120 ft | 8 kts | 341° |
| 2026-04-26 20:06 | 63.98088 | -22.65466 | 119 ft | 15 kts | 0° |
| 2026-04-26 20:06 | 63.98190 | -22.65466 | 116 ft | 14 kts | 359° |
| 2026-04-26 20:07 | 63.98284 | -22.65467 | 115 ft | 1 kts | 0° |
| 2026-04-26 20:07 | 63.98292 | -22.65467 | 118 ft | 4 kts | 359° |
| 2026-04-26 20:07 | 63.98348 | -22.65467 | 119 ft | 14 kts | 1° |
| 2026-04-26 20:07 | 63.98447 | -22.65468 | 118 ft | 14 kts | 1° |
| 2026-04-26 20:08 | 63.98503 | -22.65414 | 120 ft | 5 kts | 71° |
| 2026-04-26 20:08 | 63.98505 | -22.65331 | 120 ft | 5 kts | 89° |
| 2026-04-26 20:08 | 63.98506 | -22.65249 | 120 ft | 5 kts | 89° |
| 2026-04-26 20:08 | 63.98506 | -22.65169 | 118 ft | 5 kts | 90° |
| 2026-04-26 20:09 | 63.98505 | -22.64898 | 121 ft | 56 kts | 90° |
| 2026-04-26 20:09 | 63.98502 | -22.63207 | 144 ft | 155 kts | 94° |
| 2026-04-26 20:09 | 63.98499 | -22.60282 | 676 ft | 209 kts | 93° |
| 2026-04-26 20:09 | 63.98513 | -22.56739 | 1723 ft | 236 kts | 95° |
| 2026-04-26 20:10 | 63.98517 | -22.53215 | 2636 ft | 224 kts | 96° |
| 2026-04-26 20:10 | 63.98501 | -22.49511 | 3326 ft | 245 kts | 96° |
| 2026-04-26 20:10 | 63.98482 | -22.45555 | 4401 ft | 253 kts | 95° |
| 2026-04-26 20:10 | 63.98261 | -22.41606 | 5535 ft | 251 kts | 112° |
| 2026-04-26 20:11 | 63.97621 | -22.37871 | 6649 ft | 255 kts | 116° |
| 2026-04-26 20:11 | 63.96928 | -22.34084 | 7678 ft | 263 kts | 117° |
| 2026-04-26 20:11 | 63.96212 | -22.30195 | 8716 ft | 269 kts | 117° |
| 2026-04-26 20:12 | 63.94729 | -22.22096 | 10468 ft | 293 kts | 116° |
| 2026-04-26 20:12 | 63.93903 | -22.17581 | 10733 ft | 324 kts | 116° |
| 2026-04-26 20:12 | 63.93020 | -22.12716 | 11383 ft | 339 kts | 116° |
| 2026-04-26 20:12 | 63.92114 | -22.07695 | 12189 ft | 347 kts | 115° |
| 2026-04-26 20:13 | 63.91191 | -22.02566 | 13089 ft | 353 kts | 115° |
| 2026-04-26 20:13 | 63.90252 | -21.97349 | 13916 ft | 361 kts | 115° |
| 2026-04-26 20:13 | 63.89291 | -21.92020 | 14642 ft | 368 kts | 115° |
| 2026-04-26 20:13 | 63.88311 | -21.86592 | 15409 ft | 374 kts | 115° |
| 2026-04-26 20:14 | 63.87313 | -21.81089 | 16176 ft | 381 kts | 115° |
| 2026-04-26 20:14 | 63.86308 | -21.75560 | 16920 ft | 387 kts | 115° |
| 2026-04-26 20:14 | 63.85269 | -21.69855 | 17673 ft | 394 kts | 114° |
| 2026-04-26 20:14 | 63.84212 | -21.64070 | 18386 ft | 401 kts | 114° |
| 2026-04-26 20:15 | 63.83136 | -21.58202 | 19100 ft | 405 kts | 114° |
| 2026-04-26 20:15 | 63.82047 | -21.52276 | 19793 ft | 410 kts | 114° |
| 2026-04-26 20:15 | 63.80941 | -21.46279 | 20466 ft | 415 kts | 114° |
| 2026-04-26 20:15 | 63.79818 | -21.40210 | 21134 ft | 420 kts | 114° |
| 2026-04-26 20:16 | 63.78680 | -21.34079 | 21794 ft | 425 kts | 114° |
| 2026-04-26 20:16 | 63.77526 | -21.27882 | 22432 ft | 431 kts | 114° |
| 2026-04-26 20:16 | 63.76351 | -21.21594 | 23047 ft | 437 kts | 115° |
| 2026-04-26 20:16 | 63.75158 | -21.15227 | 23629 ft | 443 kts | 115° |
| 2026-04-26 20:17 | 63.73961 | -21.08860 | 24138 ft | 448 kts | 115° |
| 2026-04-26 20:17 | 63.72732 | -21.02346 | 24677 ft | 453 kts | 115° |
| 2026-04-26 20:17 | 63.71488 | -20.95771 | 25184 ft | 458 kts | 115° |
| 2026-04-26 20:17 | 63.70652 | -20.91363 | 25526 ft | 462 kts | 115° |
| 2026-04-26 20:18 | 63.68946 | -20.82402 | 26195 ft | 468 kts | 115° |
| 2026-04-26 20:18 | 63.67650 | -20.75623 | 26691 ft | 473 kts | 115° |
| 2026-04-26 20:18 | 63.66339 | -20.68785 | 27171 ft | 478 kts | 115° |
| 2026-04-26 20:18 | 63.65011 | -20.61885 | 27644 ft | 482 kts | 115° |
| 2026-04-26 20:19 | 63.63667 | -20.54923 | 28104 ft | 487 kts | 115° |
| 2026-04-26 20:19 | 63.62308 | -20.47909 | 28561 ft | 492 kts | 115° |
| 2026-04-26 20:19 | 63.60931 | -20.40823 | 29005 ft | 496 kts | 115° |
| 2026-04-26 20:19 | 63.59540 | -20.33697 | 29449 ft | 500 kts | 115° |
| 2026-04-26 20:20 | 63.58137 | -20.26530 | 29874 ft | 504 kts | 115° |
| 2026-04-26 20:20 | 63.56714 | -20.19286 | 30251 ft | 508 kts | 115° |
| 2026-04-26 20:20 | 63.55300 | -20.12114 | 30644 ft | 510 kts | 116° |
| 2026-04-26 20:20 | 63.53862 | -20.04848 | 31044 ft | 511 kts | 116° |
| 2026-04-26 20:21 | 63.52416 | -19.97566 | 31448 ft | 512 kts | 116° |
| 2026-04-26 20:21 | 63.50961 | -19.90262 | 31906 ft | 512 kts | 116° |
| 2026-04-26 20:21 | 63.49509 | -19.82999 | 32458 ft | 509 kts | 116° |
| 2026-04-26 20:21 | 63.48066 | -19.75807 | 32995 ft | 506 kts | 116° |
| 2026-04-26 20:22 | 63.46621 | -19.68631 | 33464 ft | 505 kts | 116° |
| 2026-04-26 20:22 | 63.45176 | -19.61483 | 33883 ft | 505 kts | 116° |
| 2026-04-26 20:22 | 63.43726 | -19.54334 | 34268 ft | 504 kts | 116° |
| 2026-04-26 20:22 | 63.42279 | -19.47226 | 34656 ft | 502 kts | 116° |
| 2026-04-26 20:23 | 63.40832 | -19.40142 | 35069 ft | 500 kts | 116° |
| 2026-04-26 20:23 | 63.39387 | -19.33093 | 35455 ft | 498 kts | 116° |
| 2026-04-26 20:23 | 63.37947 | -19.26091 | 35819 ft | 496 kts | 116° |
| 2026-04-26 20:23 | 63.36505 | -19.19103 | 36181 ft | 495 kts | 116° |
| 2026-04-26 20:24 | 63.35066 | -19.12154 | 36543 ft | 493 kts | 116° |
| 2026-04-26 20:24 | 63.33629 | -19.05237 | 36916 ft | 491 kts | 116° |
| 2026-04-26 20:24 | 63.32209 | -18.98424 | 37296 ft | 489 kts | 116° |
| 2026-04-26 20:24 | 63.30779 | -18.91586 | 37651 ft | 487 kts | 116° |
| 2026-04-26 20:25 | 63.29348 | -18.84762 | 37989 ft | 486 kts | 116° |
| 2026-04-26 20:25 | 63.28866 | -18.82471 | 38101 ft | 485 kts | 116° |
| 2026-04-26 20:25 | 63.26971 | -18.73485 | 38577 ft | 483 kts | 116° |
| 2026-04-26 20:25 | 63.25545 | -18.66743 | 38847 ft | 481 kts | 117° |
| 2026-04-26 20:26 | 63.24117 | -18.60020 | 39004 ft | 483 kts | 117° |
| 2026-04-26 20:26 | 63.21228 | -18.46481 | 39010 ft | 485 kts | 117° |
| 2026-04-26 20:27 | 63.18335 | -18.33004 | 39011 ft | 482 kts | 117° |
| 2026-04-26 20:27 | 63.15450 | -18.19654 | 39016 ft | 480 kts | 117° |
| 2026-04-26 20:28 | 63.12563 | -18.06376 | 39014 ft | 478 kts | 117° |
| 2026-04-26 20:28 | 63.09668 | -17.93147 | 39021 ft | 478 kts | 117° |
| 2026-04-26 20:29 | 63.06761 | -17.79946 | 39022 ft | 479 kts | 117° |
| 2026-04-26 20:29 | 63.03816 | -17.66654 | 39033 ft | 486 kts | 117° |
| 2026-04-26 20:30 | 63.00829 | -17.53261 | 39022 ft | 488 kts | 117° |
| 2026-04-26 20:30 | 62.97842 | -17.39944 | 39026 ft | 489 kts | 117° |
| 2026-04-26 20:31 | 62.94820 | -17.26556 | 39024 ft | 489 kts | 117° |
| 2026-04-26 20:31 | 62.91794 | -17.13234 | 39017 ft | 485 kts | 117° |
| 2026-04-26 20:32 | 62.88781 | -17.00051 | 39031 ft | 483 kts | 118° |
| 2026-04-26 20:32 | 62.85751 | -16.86878 | 39036 ft | 484 kts | 118° |
| 2026-04-26 20:33 | 62.82724 | -16.73798 | 39034 ft | 485 kts | 118° |
| 2026-04-26 20:33 | 62.79659 | -16.60629 | 39033 ft | 486 kts | 118° |
| 2026-04-26 20:34 | 62.76577 | -16.47472 | 39041 ft | 486 kts | 118° |
| 2026-04-26 20:34 | 62.73487 | -16.34358 | 39034 ft | 485 kts | 118° |
| 2026-04-26 20:35 | 62.70394 | -16.21309 | 39038 ft | 483 kts | 118° |
| 2026-04-26 20:35 | 62.67298 | -16.08328 | 39051 ft | 484 kts | 118° |
| 2026-04-26 20:36 | 62.64178 | -15.95326 | 39054 ft | 487 kts | 118° |
| 2026-04-26 20:36 | 62.61029 | -15.82280 | 39056 ft | 488 kts | 118° |
| 2026-04-26 20:37 | 62.57877 | -15.69297 | 39047 ft | 489 kts | 118° |
| 2026-04-26 20:37 | 62.54695 | -15.56271 | 39049 ft | 489 kts | 118° |
| 2026-04-26 20:38 | 62.51504 | -15.43283 | 39057 ft | 488 kts | 119° |
| 2026-04-26 20:38 | 62.48305 | -15.30340 | 39053 ft | 487 kts | 119° |
| 2026-04-26 20:39 | 62.45106 | -15.17470 | 39057 ft | 485 kts | 119° |
| 2026-04-26 20:39 | 62.41902 | -15.04656 | 39060 ft | 484 kts | 119° |
| 2026-04-26 20:40 | 62.38692 | -14.91896 | 39058 ft | 484 kts | 119° |
| 2026-04-26 20:40 | 62.35474 | -14.79174 | 39060 ft | 483 kts | 119° |
| 2026-04-26 20:41 | 62.32241 | -14.66467 | 39069 ft | 484 kts | 120° |
| 2026-04-26 20:41 | 62.29011 | -14.53847 | 39068 ft | 486 kts | 120° |
| 2026-04-26 20:42 | 62.25717 | -14.41045 | 39072 ft | 487 kts | 120° |
| 2026-04-26 20:42 | 62.22453 | -14.28436 | 39068 ft | 487 kts | 120° |
| 2026-04-26 20:43 | 62.19154 | -14.15762 | 39074 ft | 487 kts | 120° |
| 2026-04-26 20:43 | 62.15842 | -14.03109 | 39074 ft | 486 kts | 120° |
| 2026-04-26 20:44 | 62.12528 | -13.90521 | 39075 ft | 485 kts | 120° |
| 2026-04-26 20:44 | 62.09215 | -13.78006 | 39071 ft | 482 kts | 120° |
| 2026-04-26 20:45 | 62.05896 | -13.65541 | 39083 ft | 483 kts | 120° |
| 2026-04-26 20:45 | 62.02559 | -13.53079 | 39081 ft | 485 kts | 120° |
| 2026-04-26 20:46 | 61.99207 | -13.40627 | 39076 ft | 484 kts | 121° |
| 2026-04-26 20:46 | 61.95867 | -13.28286 | 39087 ft | 484 kts | 121° |
| 2026-04-26 20:47 | 61.92498 | -13.15911 | 39083 ft | 484 kts | 121° |
| 2026-04-26 20:47 | 61.89120 | -13.03567 | 39085 ft | 483 kts | 121° |
| 2026-04-26 20:48 | 61.85732 | -12.91257 | 39091 ft | 483 kts | 121° |
| 2026-04-26 20:48 | 61.82335 | -12.78978 | 39088 ft | 483 kts | 121° |
| 2026-04-26 20:49 | 61.78941 | -12.66781 | 39097 ft | 484 kts | 121° |
| 2026-04-26 20:49 | 61.75512 | -12.54522 | 39095 ft | 485 kts | 121° |
| 2026-04-26 20:50 | 61.72058 | -12.42240 | 39097 ft | 486 kts | 121° |
| 2026-04-26 20:50 | 61.68605 | -12.30026 | 39094 ft | 483 kts | 121° |
| 2026-04-26 20:51 | 61.65159 | -12.17902 | 39089 ft | 481 kts | 121° |
| 2026-04-26 20:51 | 61.61722 | -12.05876 | 39098 ft | 479 kts | 122° |
| 2026-04-26 20:52 | 61.58304 | -11.93980 | 39097 ft | 478 kts | 122° |
| 2026-04-26 20:52 | 61.54853 | -11.82029 | 39102 ft | 478 kts | 122° |
| 2026-04-26 20:53 | 61.51395 | -11.70114 | 39108 ft | 479 kts | 122° |
| 2026-04-26 20:53 | 61.47924 | -11.58183 | 39106 ft | 481 kts | 122° |
| 2026-04-26 20:54 | 61.44424 | -11.46244 | 39109 ft | 482 kts | 122° |
| 2026-04-26 20:54 | 61.40923 | -11.34376 | 39110 ft | 483 kts | 122° |
| 2026-04-26 20:55 | 61.37379 | -11.22426 | 39112 ft | 484 kts | 122° |
| 2026-04-26 20:55 | 61.33829 | -11.10514 | 39106 ft | 483 kts | 122° |
| 2026-04-26 20:56 | 61.30272 | -10.98640 | 39111 ft | 483 kts | 122° |
| 2026-04-26 20:56 | 61.26701 | -10.86780 | 39119 ft | 484 kts | 122° |
| 2026-04-26 20:57 | 61.23119 | -10.74944 | 39113 ft | 484 kts | 122° |
| 2026-04-26 20:57 | 61.19522 | -10.63121 | 39117 ft | 484 kts | 122° |
| 2026-04-26 20:58 | 61.15916 | -10.51331 | 39115 ft | 484 kts | 123° |
| 2026-04-26 20:58 | 61.12302 | -10.39573 | 39115 ft | 483 kts | 123° |
| 2026-04-26 20:59 | 61.08708 | -10.27940 | 39121 ft | 483 kts | 123° |
| 2026-04-26 20:59 | 61.05084 | -10.16266 | 39122 ft | 483 kts | 123° |
| 2026-04-26 21:00 | 61.01410 | -10.04620 | 39115 ft | 483 kts | 127° |
| 2026-04-26 21:00 | 60.96754 | -9.94736 | 39119 ft | 480 kts | 144° |
| 2026-04-26 21:01 | 60.91338 | -9.86683 | 39125 ft | 480 kts | 146° |
| 2026-04-26 21:01 | 60.85899 | -9.78699 | 39130 ft | 480 kts | 145° |
| 2026-04-26 21:02 | 60.80482 | -9.70637 | 39130 ft | 481 kts | 145° |
| 2026-04-26 21:02 | 60.75112 | -9.62620 | 39132 ft | 481 kts | 145° |
| 2026-04-26 21:03 | 60.69701 | -9.54579 | 39131 ft | 480 kts | 145° |
| 2026-04-26 21:03 | 60.64284 | -9.46567 | 39133 ft | 481 kts | 145° |
| 2026-04-26 21:04 | 60.58708 | -9.39072 | 39123 ft | 479 kts | 155° |
| 2026-04-26 21:04 | 60.52667 | -9.33412 | 39139 ft | 478 kts | 158° |
| 2026-04-26 21:05 | 60.46589 | -9.27927 | 39136 ft | 478 kts | 158° |
| 2026-04-26 21:05 | 60.40507 | -9.22386 | 39142 ft | 479 kts | 158° |
| 2026-04-26 21:06 | 60.34477 | -9.16844 | 39136 ft | 479 kts | 157° |
| 2026-04-26 21:06 | 60.28395 | -9.11253 | 39144 ft | 479 kts | 158° |
| 2026-04-26 21:07 | 60.22319 | -9.05690 | 39146 ft | 479 kts | 158° |
| 2026-04-26 21:07 | 60.16244 | -9.00153 | 39146 ft | 480 kts | 158° |
| 2026-04-26 21:08 | 60.10196 | -8.94665 | 39147 ft | 480 kts | 158° |
| 2026-04-26 21:08 | 60.04119 | -8.89174 | 39147 ft | 479 kts | 158° |
| 2026-04-26 21:09 | 59.98030 | -8.83694 | 39157 ft | 479 kts | 158° |
| 2026-04-26 21:09 | 59.91930 | -8.78226 | 39156 ft | 480 kts | 158° |
| 2026-04-26 21:10 | 59.85841 | -8.72791 | 39159 ft | 480 kts | 158° |
| 2026-04-26 21:10 | 59.79743 | -8.67369 | 39159 ft | 480 kts | 158° |
| 2026-04-26 21:11 | 59.73687 | -8.62006 | 39165 ft | 480 kts | 158° |
| 2026-04-26 21:11 | 59.67585 | -8.56623 | 39162 ft | 480 kts | 158° |
| 2026-04-26 21:12 | 59.61481 | -8.51260 | 39170 ft | 480 kts | 158° |
| 2026-04-26 21:12 | 59.55365 | -8.45909 | 39169 ft | 480 kts | 159° |
| 2026-04-26 21:13 | 59.50247 | -8.41447 | 39169 ft | 480 kts | 159° |
| 2026-04-26 21:13 | 59.44126 | -8.36131 | 39172 ft | 480 kts | 159° |
| 2026-04-26 21:14 | 59.38044 | -8.30868 | 39175 ft | 481 kts | 159° |
| 2026-04-26 21:14 | 59.31912 | -8.25584 | 39178 ft | 481 kts | 159° |
| 2026-04-26 21:15 | 59.25784 | -8.20324 | 39182 ft | 481 kts | 159° |
| 2026-04-26 21:15 | 59.19650 | -8.15079 | 39182 ft | 481 kts | 159° |
| 2026-04-26 21:16 | 59.13515 | -8.09854 | 39185 ft | 481 kts | 159° |
| 2026-04-26 21:16 | 59.07421 | -8.04684 | 39187 ft | 481 kts | 159° |
| 2026-04-26 21:17 | 59.01282 | -7.99496 | 39193 ft | 481 kts | 159° |
| 2026-04-26 21:17 | 58.95136 | -7.94323 | 39194 ft | 481 kts | 159° |
| 2026-04-26 21:18 | 58.88994 | -7.89173 | 39200 ft | 480 kts | 159° |
| 2026-04-26 21:18 | 58.82869 | -7.84057 | 39197 ft | 480 kts | 159° |
| 2026-04-26 21:19 | 58.76732 | -7.78951 | 39200 ft | 480 kts | 159° |
| 2026-04-26 21:19 | 58.70603 | -7.73872 | 39203 ft | 480 kts | 159° |
| 2026-04-26 21:20 | 58.64493 | -7.68827 | 39207 ft | 481 kts | 159° |
| 2026-04-26 21:20 | 58.58336 | -7.63764 | 39207 ft | 481 kts | 160° |
| 2026-04-26 21:21 | 58.52172 | -7.58714 | 39211 ft | 482 kts | 160° |
| 2026-04-26 21:21 | 58.45996 | -7.53673 | 39218 ft | 482 kts | 160° |
| 2026-04-26 21:22 | 58.39867 | -7.48689 | 39219 ft | 482 kts | 160° |
| 2026-04-26 21:22 | 58.33701 | -7.43695 | 39224 ft | 481 kts | 160° |
| 2026-04-26 21:23 | 58.24457 | -7.36243 | 39227 ft | 481 kts | 160° |
| 2026-04-26 21:23 | 58.18303 | -7.31305 | 39229 ft | 480 kts | 160° |
| 2026-04-26 21:24 | 58.12150 | -7.26387 | 39233 ft | 480 kts | 160° |
| 2026-04-26 21:24 | 58.06002 | -7.21492 | 39238 ft | 479 kts | 160° |
| 2026-04-26 21:25 | 57.99853 | -7.16613 | 39242 ft | 479 kts | 160° |
| 2026-04-26 21:25 | 57.93700 | -7.11751 | 39248 ft | 480 kts | 160° |
| 2026-04-26 21:26 | 57.87565 | -7.06921 | 39248 ft | 481 kts | 160° |
| 2026-04-26 21:26 | 57.81382 | -7.02070 | 39254 ft | 481 kts | 160° |
| 2026-04-26 21:27 | 57.75202 | -6.97239 | 39255 ft | 481 kts | 160° |
| 2026-04-26 21:27 | 57.69005 | -6.92413 | 39252 ft | 480 kts | 160° |
| 2026-04-26 21:28 | 57.62847 | -6.87635 | 39250 ft | 479 kts | 160° |
| 2026-04-26 21:28 | 57.56724 | -6.82902 | 39258 ft | 478 kts | 161° |
| 2026-04-26 21:29 | 57.50567 | -6.78158 | 39269 ft | 480 kts | 161° |
| 2026-04-26 21:29 | 57.44385 | -6.73432 | 39264 ft | 480 kts | 161° |
| 2026-04-26 21:30 | 57.38210 | -6.68718 | 39268 ft | 479 kts | 161° |
| 2026-04-26 21:30 | 57.32049 | -6.64024 | 39265 ft | 478 kts | 161° |
| 2026-04-26 21:31 | 57.25896 | -6.59352 | 39272 ft | 477 kts | 161° |
| 2026-04-26 21:31 | 57.19797 | -6.54739 | 39276 ft | 476 kts | 161° |
| 2026-04-26 21:32 | 57.13659 | -6.50115 | 39281 ft | 476 kts | 161° |
| 2026-04-26 21:32 | 57.07525 | -6.45509 | 39276 ft | 476 kts | 161° |
| 2026-04-26 21:33 | 57.04484 | -6.43230 | 39315 ft | 465 kts | 161° |
| 2026-04-26 21:33 | 57.01537 | -6.41019 | 39282 ft | 452 kts | 161° |
| 2026-04-26 21:33 | 56.95753 | -6.36705 | 39279 ft | 447 kts | 161° |
| 2026-04-26 21:34 | 56.90004 | -6.32439 | 39281 ft | 445 kts | 162° |
| 2026-04-26 21:34 | 56.84306 | -6.28222 | 39276 ft | 443 kts | 162° |
| 2026-04-26 21:35 | 56.78588 | -6.24003 | 39285 ft | 442 kts | 162° |
| 2026-04-26 21:35 | 56.72882 | -6.19804 | 39286 ft | 441 kts | 162° |
| 2026-04-26 21:36 | 56.68152 | -6.16334 | 39288 ft | 441 kts | 162° |
| 2026-04-26 21:36 | 56.61500 | -6.11470 | 39289 ft | 440 kts | 162° |
| 2026-04-26 21:37 | 56.55857 | -6.07358 | 39299 ft | 439 kts | 162° |
| 2026-04-26 21:37 | 56.50179 | -6.03234 | 39296 ft | 439 kts | 162° |
| 2026-04-26 21:38 | 56.44508 | -5.99128 | 39298 ft | 439 kts | 162° |
| 2026-04-26 21:38 | 56.38834 | -5.95033 | 39297 ft | 438 kts | 162° |
| 2026-04-26 21:39 | 56.33161 | -5.90950 | 39290 ft | 438 kts | 162° |
| 2026-04-26 21:39 | 56.27545 | -5.86908 | 39293 ft | 438 kts | 160° |
| 2026-04-26 21:40 | 56.24915 | -5.84091 | 39289 ft | 444 kts | 143° |
| 2026-04-26 21:40 | 56.22736 | -5.80124 | 39299 ft | 449 kts | 129° |
| 2026-04-26 21:40 | 56.21163 | -5.75275 | 39304 ft | 450 kts | 116° |
| 2026-04-26 21:40 | 56.19874 | -5.70150 | 39304 ft | 451 kts | 115° |
| 2026-04-26 21:41 | 56.17347 | -5.59806 | 39261 ft | 457 kts | 115° |
| 2026-04-26 21:41 | 56.14697 | -5.49266 | 39307 ft | 469 kts | 116° |
| 2026-04-26 21:42 | 56.11922 | -5.38492 | 39316 ft | 482 kts | 116° |
| 2026-04-26 21:42 | 56.09058 | -5.27460 | 39308 ft | 493 kts | 116° |
| 2026-04-26 21:43 | 56.06180 | -5.16401 | 39301 ft | 493 kts | 116° |
| 2026-04-26 21:43 | 56.03257 | -5.05271 | 39285 ft | 494 kts | 117° |
| 2026-04-26 21:44 | 56.01780 | -4.99721 | 38880 ft | 499 kts | 117° |
| 2026-04-26 21:44 | 56.00281 | -4.94098 | 38159 ft | 498 kts | 117° |
| 2026-04-26 21:44 | 55.98800 | -4.88537 | 37416 ft | 495 kts | 116° |
| 2026-04-26 21:44 | 55.97694 | -4.82731 | 36676 ft | 496 kts | 102° |
| 2026-04-26 21:45 | 55.97348 | -4.76609 | 35899 ft | 495 kts | 90° |
| 2026-04-26 21:45 | 55.97725 | -4.70489 | 34954 ft | 498 kts | 75° |
| 2026-04-26 21:45 | 55.98756 | -4.64578 | 34045 ft | 499 kts | 70° |
| 2026-04-26 21:45 | 55.99885 | -4.58699 | 32981 ft | 501 kts | 70° |
| 2026-04-26 21:46 | 56.01020 | -4.52812 | 31988 ft | 501 kts | 70° |
| 2026-04-26 21:46 | 56.02136 | -4.46905 | 30983 ft | 502 kts | 71° |
| 2026-04-26 21:46 | 56.03225 | -4.40983 | 30168 ft | 499 kts | 71° |
| 2026-04-26 21:46 | 56.04284 | -4.35110 | 29351 ft | 492 kts | 71° |
| 2026-04-26 21:47 | 56.05316 | -4.29325 | 28606 ft | 485 kts | 71° |
| 2026-04-26 21:47 | 56.06337 | -4.23571 | 27746 ft | 481 kts | 71° |
| 2026-04-26 21:47 | 56.07341 | -4.17903 | 27030 ft | 475 kts | 71° |
| 2026-04-26 21:47 | 56.08333 | -4.12298 | 26351 ft | 469 kts | 71° |
| 2026-04-26 21:48 | 56.09312 | -4.06761 | 25682 ft | 463 kts | 71° |
| 2026-04-26 21:48 | 56.10265 | -4.01350 | 25026 ft | 458 kts | 71° |
| 2026-04-26 21:48 | 56.10956 | -3.95819 | 24353 ft | 455 kts | 86° |
| 2026-04-26 21:48 | 56.10703 | -3.90235 | 23713 ft | 448 kts | 105° |
| 2026-04-26 21:49 | 56.09579 | -3.85096 | 22981 ft | 438 kts | 123° |
| 2026-04-26 21:49 | 56.07778 | -3.80795 | 22324 ft | 426 kts | 137° |
| 2026-04-26 21:49 | 56.05545 | -3.77465 | 21649 ft | 414 kts | 153° |
| 2026-04-26 21:49 | 56.03000 | -3.75196 | 21049 ft | 404 kts | 161° |
| 2026-04-26 21:50 | 56.00423 | -3.73235 | 20415 ft | 399 kts | 161° |
| 2026-04-26 21:50 | 55.98734 | -3.71986 | 20008 ft | 396 kts | 162° |
| 2026-04-26 21:50 | 55.95339 | -3.69485 | 19202 ft | 392 kts | 161° |
| 2026-04-26 21:50 | 55.92830 | -3.67616 | 18605 ft | 389 kts | 161° |
| 2026-04-26 21:51 | 55.90340 | -3.65746 | 17923 ft | 387 kts | 160° |
| 2026-04-26 21:51 | 55.87873 | -3.63879 | 17297 ft | 383 kts | 160° |
| 2026-04-26 21:51 | 55.85437 | -3.62030 | 16697 ft | 379 kts | 160° |
| 2026-04-26 21:51 | 55.83055 | -3.60221 | 16118 ft | 375 kts | 160° |
| 2026-04-26 21:52 | 55.80662 | -3.58404 | 15549 ft | 371 kts | 160° |
| 2026-04-26 21:52 | 55.78301 | -3.56614 | 14978 ft | 367 kts | 160° |
| 2026-04-26 21:52 | 55.75960 | -3.54842 | 14403 ft | 364 kts | 160° |
| 2026-04-26 21:52 | 55.73640 | -3.53087 | 13819 ft | 361 kts | 160° |
| 2026-04-26 21:53 | 55.71333 | -3.51345 | 13238 ft | 358 kts | 160° |
| 2026-04-26 21:53 | 55.69100 | -3.49658 | 13112 ft | 341 kts | 160° |
| 2026-04-26 21:53 | 55.66955 | -3.48039 | 12953 ft | 328 kts | 160° |
| 2026-04-26 21:53 | 55.64894 | -3.46487 | 12811 ft | 315 kts | 160° |
| 2026-04-26 21:54 | 55.62915 | -3.45000 | 12680 ft | 304 kts | 160° |
| 2026-04-26 21:54 | 55.61003 | -3.43564 | 12557 ft | 293 kts | 160° |
| 2026-04-26 21:54 | 55.59155 | -3.42178 | 12442 ft | 283 kts | 160° |
| 2026-04-26 21:54 | 55.57375 | -3.40844 | 12327 ft | 273 kts | 160° |
| 2026-04-26 21:55 | 55.55820 | -3.39092 | 12200 ft | 269 kts | 134° |
| 2026-04-26 21:55 | 55.54960 | -3.36243 | 12118 ft | 264 kts | 102° |
| 2026-04-26 21:55 | 55.55036 | -3.33064 | 11910 ft | 260 kts | 70° |
| 2026-04-26 21:55 | 55.55987 | -3.30429 | 11668 ft | 253 kts | 39° |
| 2026-04-26 21:56 | 55.57420 | -3.28724 | 11455 ft | 246 kts | 24° |
| 2026-04-26 21:56 | 55.58958 | -3.27407 | 11188 ft | 245 kts | 21° |
| 2026-04-26 21:56 | 55.60501 | -3.26153 | 10947 ft | 243 kts | 21° |
| 2026-04-26 21:56 | 55.62035 | -3.24894 | 10701 ft | 242 kts | 22° |
| 2026-04-26 21:57 | 55.63557 | -3.23623 | 10453 ft | 242 kts | 22° |
| 2026-04-26 21:57 | 55.65072 | -3.22340 | 10197 ft | 241 kts | 22° |
| 2026-04-26 21:57 | 55.66580 | -3.21054 | 9948 ft | 240 kts | 23° |
| 2026-04-26 21:57 | 55.68080 | -3.19770 | 9696 ft | 238 kts | 23° |
| 2026-04-26 21:58 | 55.69570 | -3.18491 | 9442 ft | 238 kts | 23° |
| 2026-04-26 21:58 | 55.71052 | -3.17192 | 9196 ft | 237 kts | 24° |
| 2026-04-26 21:58 | 55.72529 | -3.15886 | 8956 ft | 237 kts | 24° |
| 2026-04-26 21:58 | 55.74000 | -3.14583 | 8706 ft | 236 kts | 24° |
| 2026-04-26 21:59 | 55.74975 | -3.13720 | 8547 ft | 235 kts | 24° |
| 2026-04-26 21:59 | 55.76907 | -3.12008 | 8234 ft | 233 kts | 24° |
| 2026-04-26 21:59 | 55.78361 | -3.10721 | 7998 ft | 232 kts | 24° |
| 2026-04-26 21:59 | 55.79805 | -3.09441 | 7774 ft | 231 kts | 24° |
| 2026-04-26 22:00 | 55.80775 | -3.08580 | 7612 ft | 231 kts | 24° |
| 2026-04-26 22:00 | 55.82207 | -3.07308 | 7386 ft | 229 kts | 24° |
| 2026-04-26 22:00 | 55.83631 | -3.06043 | 7157 ft | 228 kts | 24° |
| 2026-04-26 22:00 | 55.85034 | -3.04826 | 6927 ft | 227 kts | 19° |
| 2026-04-26 22:01 | 55.86550 | -3.04167 | 6727 ft | 221 kts | 7° |
| 2026-04-26 22:01 | 55.88048 | -3.03742 | 6489 ft | 215 kts | 6° |
| 2026-04-26 22:01 | 55.89500 | -3.03323 | 6295 ft | 207 kts | 7° |
| 2026-04-26 22:01 | 55.90887 | -3.02901 | 6075 ft | 200 kts | 7° |
| 2026-04-26 22:02 | 55.92290 | -3.02466 | 5668 ft | 204 kts | 7° |
| 2026-04-26 22:02 | 55.93683 | -3.02026 | 5389 ft | 201 kts | 7° |
| 2026-04-26 22:02 | 55.95040 | -3.01757 | 5158 ft | 192 kts | 353° |
| 2026-04-26 22:02 | 55.96316 | -3.02017 | 5049 ft | 177 kts | 349° |
| 2026-04-26 22:03 | 55.97487 | -3.02313 | 4915 ft | 164 kts | 349° |
| 2026-04-26 22:03 | 55.98599 | -3.02588 | 4771 ft | 161 kts | 349° |
| 2026-04-26 22:03 | 55.99732 | -3.02867 | 4654 ft | 170 kts | 348° |
| 2026-04-26 22:03 | 56.01002 | -3.03203 | 4662 ft | 203 kts | 348° |
| 2026-04-26 22:04 | 56.02491 | -3.03648 | 4831 ft | 223 kts | 341° |
| 2026-04-26 22:04 | 56.03679 | -3.05152 | 4738 ft | 201 kts | 302° |
| 2026-04-26 22:04 | 56.03917 | -3.07392 | 4537 ft | 175 kts | 261° |
| 2026-04-26 22:04 | 56.03656 | -3.09381 | 4338 ft | 153 kts | 258° |
| 2026-04-26 22:05 | 56.03392 | -3.11125 | 4096 ft | 137 kts | 252° |
| 2026-04-26 22:05 | 56.03060 | -3.12590 | 3983 ft | 122 kts | 248° |
| 2026-04-26 22:05 | 56.02722 | -3.13949 | 3929 ft | 122 kts | 249° |
| 2026-04-26 22:05 | 56.02347 | -3.15368 | 3558 ft | 125 kts | 245° |
| 2026-04-26 22:06 | 56.01937 | -3.16712 | 3215 ft | 121 kts | 243° |
| 2026-04-26 22:06 | 56.01518 | -3.18001 | 2836 ft | 120 kts | 242° |
| 2026-04-26 22:06 | 56.01083 | -3.19303 | 2419 ft | 119 kts | 241° |
| 2026-04-26 22:06 | 56.00655 | -3.20567 | 2140 ft | 120 kts | 241° |
| 2026-04-26 22:07 | 56.00234 | -3.21807 | 1961 ft | 115 kts | 242° |
| 2026-04-26 22:07 | 55.99823 | -3.23019 | 1805 ft | 115 kts | 241° |
| 2026-04-26 22:07 | 55.99406 | -3.24247 | 1662 ft | 115 kts | 241° |
| 2026-04-26 22:07 | 55.98993 | -3.25464 | 1487 ft | 114 kts | 241° |
| 2026-04-26 22:08 | 55.98576 | -3.26692 | 1332 ft | 116 kts | 241° |
| 2026-04-26 22:08 | 55.98165 | -3.27904 | 1177 ft | 114 kts | 240° |
| 2026-04-26 22:08 | 55.97758 | -3.29102 | 1012 ft | 112 kts | 240° |
| 2026-04-26 22:08 | 55.97344 | -3.30325 | 849 ft | 117 kts | 239° |
| 2026-04-26 22:09 | 55.96923 | -3.31570 | 686 ft | 115 kts | 240° |
| 2026-04-26 22:09 | 55.96509 | -3.32816 | 511 ft | 120 kts | 241° |
| 2026-04-26 22:09 | 55.96076 | -3.34068 | 367 ft | 119 kts | 239° |
| 2026-04-26 22:09 | 55.95649 | -3.35334 | 211 ft | 116 kts | 240° |
| 2026-04-26 22:10 | 55.95243 | -3.36528 | 110 ft | 105 kts | 239° |
| 2026-04-26 22:10 | 55.94938 | -3.37426 | 112 ft | 64 kts | 238° |
| 2026-04-26 22:10 | 55.94778 | -3.37891 | 118 ft | 31 kts | 240° |
| 2026-04-26 22:10 | 55.94662 | -3.38025 | 115 ft | 19 kts | 143° |
| 2026-04-26 22:11 | 55.94596 | -3.37867 | 112 ft | 17 kts | 68° |
| 2026-04-26 22:11 | 55.94658 | -3.37697 | 113 ft | 16 kts | 68° |
| 2026-04-26 22:11 | 55.94712 | -3.37523 | 113 ft | 16 kts | 57° |
| 2026-04-26 22:11 | 55.94770 | -3.37353 | 111 ft | 16 kts | 61° |
| 2026-04-26 22:12 | 55.94833 | -3.37166 | 107 ft | 19 kts | 58° |
| 2026-04-26 22:12 | 55.94903 | -3.36959 | 107 ft | 21 kts | 62° |
| 2026-04-26 22:12 | 55.94977 | -3.36741 | 110 ft | 21 kts | 60° |
| 2026-04-26 22:12 | 55.95057 | -3.36516 | 112 ft | 22 kts | 57° |
| 2026-04-26 22:13 | 55.95135 | -3.36270 | 108 ft | 21 kts | 75° |
| 2026-04-26 22:13 | 55.95096 | -3.36012 | 106 ft | 23 kts | 107° |
| 2026-04-26 22:13 | 55.95009 | -3.35841 | 107 ft | 19 kts | 188° |
| 2026-04-26 22:13 | 55.94969 | -3.35931 | 106 ft | 9 kts | 253° |
| 2026-04-26 22:14 | 55.94956 | -3.36013 | 107 ft | 0 kts | 253° |